Fireboat Challenger — WR8183 — position and weather

sailwx.info

Track history (hours):
 
Tides and Currents Weather Stations Pressure Air Temp Water Temp Dewpoint Dewpoint Depression Visibility Wind Speed Wind Dir Waves Ship Positions

Fireboat Challenger

Owner: Long Beach, City of, LONG BEACH, CA. More information available from US FCC via Universal Licensing System and Coast Guard Vessel Documentation Center.

Last reported at 2017-Aug-12 01:57 UTC. Time now 2017-Aug-22 12:56 UTC.
Position N 33°44' W 118°16'.
Warning: this ship's position is 10 days out of date.

Length 29 m.

MMSI: 367067790.

Date/timePositionNaut miles runAvg speedWind from/ knotsBaromVisibWave heightAir tempDewpointWater temp
2017-Aug-12 01:57N 33°44' W 118°16'2 5.1
2017-Aug-12 01:30N 33°42' W 118°14'5 9.5
2017-Aug-12 01:00N 33°38' W 118°11'3 6.9
2017-Aug-12 00:30N 33°35' W 118°09'1 1.3
2017-Aug-12 00:00N 33°36' W 118°09'5 9.1
2017-Aug-11 23:30N 33°31' W 118°07'5 9.7
2017-Aug-11 23:00N 33°27' W 118°09'511.0
2017-Aug-11 22:30N 33°23' W 118°14'510.7
2017-Aug-11 22:00N 33°19' W 118°18'0 0.5
2017-Aug-11 21:30N 33°19' W 118°18'3 5.4
2017-Aug-11 21:00N 33°18' W 118°21'3 6.3
2017-Aug-11 20:30N 33°19' W 118°25'0 0.5
2017-Aug-11 20:00N 33°19' W 118°25'2 4.9
2017-Aug-11 19:30N 33°19' W 118°22'5 9.0
2017-Aug-11 18:59N 33°19' W 118°16'5 9.7
2017-Aug-11 18:29N 33°20' W 118°11'4 8.6
2017-Aug-11 18:00N 33°22' W 118°06'1 1.4
2017-Aug-11 17:30N 33°22' W 118°05'5 9.5
2017-Aug-11 16:57N 33°25' W 118°00'0 0.4
2017-Aug-11 16:30N 33°25' W 118°00'1 2.3
2017-Aug-11 15:53N 33°27' W 118°01'2 5.9
2017-Aug-11 15:30N 33°29' W 118°02'1 2.6
2017-Aug-11 15:00N 33°30' W 118°03'0 0.2
2017-Aug-11 14:00N 33°30' W 118°04'4 8.8
2017-Aug-11 13:30N 33°33' W 118°06'5 9.5
2017-Aug-11 13:00N 33°37' W 118°10'5 9.5
2017-Aug-11 12:30N 33°41' W 118°13'3 6.3
2017-Aug-11 12:00N 33°43' W 118°16'1 1.4
2017-Aug-11 11:30N 33°43' W 118°16'1 0.0
2017-Aug-09 17:13N 33°44' W 118°16'  
Track history (hours):
 
Tides and Currents Weather Stations Pressure Air Temp Water Temp Dewpoint Dewpoint Depression Visibility Wind Speed Wind Dir Waves Ship Positions

Fireboat Challenger

Owner: Long Beach, City of, LONG BEACH, CA. More information available from US FCC via Universal Licensing System and Coast Guard Vessel Documentation Center.

Last reported at 2017-Aug-12 01:57 UTC. Time now 2017-Aug-22 12:56 UTC.
Position N 33°44' W 118°16'.
Warning: this ship's position is 10 days out of date.

Length 29 m.

MMSI: 367067790.

Date/timePositionNaut miles runAvg speedWind from/ knotsBaromVisibWave heightAir tempDewpointWater temp
2017-Aug-12 01:57N 33°44' W 118°16'2 5.1
2017-Aug-12 01:30N 33°42' W 118°14'5 9.5
2017-Aug-12 01:00N 33°38' W 118°11'3 6.9
2017-Aug-12 00:30N 33°35' W 118°09'1 1.3
2017-Aug-12 00:00N 33°36' W 118°09'5 9.1
2017-Aug-11 23:30N 33°31' W 118°07'5 9.7
2017-Aug-11 23:00N 33°27' W 118°09'511.0
2017-Aug-11 22:30N 33°23' W 118°14'510.7
2017-Aug-11 22:00N 33°19' W 118°18'0 0.5
2017-Aug-11 21:30N 33°19' W 118°18'3 5.4
2017-Aug-11 21:00N 33°18' W 118°21'3 6.3
2017-Aug-11 20:30N 33°19' W 118°25'0 0.5
2017-Aug-11 20:00N 33°19' W 118°25'2 4.9
2017-Aug-11 19:30N 33°19' W 118°22'5 9.0
2017-Aug-11 18:59N 33°19' W 118°16'5 9.7
2017-Aug-11 18:29N 33°20' W 118°11'4 8.6
2017-Aug-11 18:00N 33°22' W 118°06'1 1.4
2017-Aug-11 17:30N 33°22' W 118°05'5 9.5
2017-Aug-11 16:57N 33°25' W 118°00'0 0.4
2017-Aug-11 16:30N 33°25' W 118°00'1 2.3
2017-Aug-11 15:53N 33°27' W 118°01'2 5.9
2017-Aug-11 15:30N 33°29' W 118°02'1 2.6
2017-Aug-11 15:00N 33°30' W 118°03'0 0.2
2017-Aug-11 14:00N 33°30' W 118°04'4 8.8
2017-Aug-11 13:30N 33°33' W 118°06'5 9.5
2017-Aug-11 13:00N 33°37' W 118°10'5 9.5
2017-Aug-11 12:30N 33°41' W 118°13'3 6.3
2017-Aug-11 12:00N 33°43' W 118°16'1 1.4
2017-Aug-11 11:30N 33°43' W 118°16'1 0.0
2017-Aug-09 17:13N 33°44' W 118°16'  

Dump ship's entire track history